Time;durP1;ratioP1;P1;durP2;ratioP2;P2;SDS_P1;SDS_P2;PMS_P1;PMS_P2;Temp;Humidity;BMP_temperature;BMP_pressure;BME280_temperature;BME280_humidity;BME280_pressure;Samples;Min_cycle;Max_cycle;Signal;HPM_P1;HPM_P2
2022/02/02 00:02:18;;;;;;;21.10;5.43;;;8.10;99.90;;;;;;5053308;28;20405;-70
2022/02/02 00:04:48;;;;;;;19.47;6.90;;;8.10;99.90;;;;;;5054214;28;20420;-70
2022/02/02 00:09:48;;;;;;;20.00;5.90;;;8.00;99.90;;;;;;5052836;28;20485;-71
2022/02/02 00:12:20;;;;;;;19.43;6.73;;;8.10;99.90;;;;;;5035127;28;20162;-72
2022/02/02 00:20:19;;;;;;;17.60;6.23;;;8.10;99.90;;;;;;5052841;28;20500;-71
2022/02/02 00:22:47;;;;;;;23.70;6.93;;;8.10;99.90;;;;;;5052881;28;20916;-71
2022/02/02 00:27:40;;;;;;;24.40;7.27;;;8.10;99.90;;;;;;5050726;28;20420;-72
2022/02/02 00:30:09;;;;;;;25.17;7.80;;;8.10;99.90;;;;;;5052599;28;20178;-71
2022/02/02 00:35:07;;;;;;;23.17;6.10;;;8.10;99.90;;;;;;5053642;28;20389;-71
2022/02/02 00:37:33;;;;;;;18.70;7.50;;;8.10;99.90;;;;;;5052159;28;20919;-72
2022/02/02 00:39:58;;;;;;;20.37;6.67;;;8.00;99.90;;;;;;5069546;28;20502;-71
2022/02/02 00:42:29;;;;;;;29.40;6.93;;;8.10;99.90;;;;;;5072352;28;20170;-71
2022/02/02 00:44:56;;;;;;;23.80;6.50;;;8.10;99.90;;;;;;5072304;28;20658;-71
2022/02/02 00:47:24;;;;;;;28.97;6.90;;;8.20;99.90;;;;;;5071669;28;20979;-71
2022/02/02 00:49:51;;;;;;;23.50;6.83;;;8.20;99.90;;;;;;5070534;28;20507;-71
2022/02/02 00:52:17;;;;;;;15.83;6.17;;;8.20;99.90;;;;;;5072161;28;20509;-71
2022/02/02 00:54:43;;;;;;;26.20;7.47;;;8.10;99.90;;;;;;5072261;28;20542;-71
2022/02/02 00:57:08;;;;;;;22.10;7.17;;;8.10;99.90;;;;;;5071855;28;20443;-71
2022/02/02 00:59:34;;;;;;;22.53;6.90;;;8.00;99.90;;;;;;5070223;28;20201;-71
2022/02/02 01:02:00;;;;;;;14.67;6.30;;;8.00;99.90;;;;;;5072261;28;20181;-71
2022/02/02 01:04:26;;;;;;;20.67;6.27;;;7.90;99.90;;;;;;5072116;28;20178;-71
2022/02/02 01:07:08;;;;;;;16.20;6.20;;;7.90;99.90;;;;;;5071630;28;20199;-71
2022/02/02 01:09:44;;;;;;;21.50;6.70;;;7.90;99.90;;;;;;5071618;28;20423;-71
2022/02/02 01:18:12;;;;;;;18.83;4.73;;;7.80;99.90;;;;;;5071712;28;20401;-72
2022/02/02 01:28:46;;;;;;;20.87;5.33;;;7.70;99.90;;;;;;5003709;28;20865;-70
2022/02/02 01:31:15;;;;;;;21.13;5.70;;;7.70;99.90;;;;;;5044531;28;20433;-70
2022/02/02 01:33:41;;;;;;;24.13;5.70;;;7.70;99.90;;;;;;5053707;28;20176;-71
2022/02/02 01:36:06;;;;;;;32.37;6.63;;;7.70;99.90;;;;;;5071088;28;20412;-70
2022/02/02 01:38:35;;;;;;;21.90;7.10;;;7.70;99.90;;;;;;5071369;28;20460;-70
2022/02/02 01:41:17;;;;;;;24.80;6.10;;;7.70;99.90;;;;;;5071596;28;20415;-71
2022/02/02 01:43:55;;;;;;;28.10;7.70;;;7.70;99.90;;;;;;5069724;28;20943;-71
2022/02/02 01:46:21;;;;;;;23.70;6.43;;;7.80;99.90;;;;;;5070837;28;20439;-70
2022/02/02 01:50:04;;;;;;;34.47;7.50;;;7.80;99.90;;;;;;5053373;28;20443;-71
2022/02/02 01:56:46;;;;;;;24.63;6.70;;;7.80;99.90;;;;;;5071460;28;20410;-71
2022/02/02 02:02:09;;;;;;;27.70;7.67;;;7.80;99.90;;;;;;4989538;28;20594;-71
2022/02/02 02:04:36;;;;;;;16.53;6.53;;;7.70;99.90;;;;;;4990474;28;20435;-70
2022/02/02 02:07:02;;;;;;;20.57;6.83;;;7.80;99.90;;;;;;4993144;28;20258;-71
2022/02/02 02:09:29;;;;;;;20.23;8.33;;;7.70;99.90;;;;;;4993728;28;20799;-71
2022/02/02 02:12:06;;;;;;;20.33;7.00;;;7.80;99.90;;;;;;4993269;28;20416;-71
2022/02/02 02:14:47;;;;;;;27.57;7.97;;;7.70;99.90;;;;;;4993205;28;20441;-71
2022/02/02 02:17:13;;;;;;;23.03;7.73;;;7.70;99.90;;;;;;4993231;28;20431;-71
2022/02/02 02:19:43;;;;;;;35.43;9.83;;;7.70;99.90;;;;;;4993684;28;20486;-71
2022/02/02 02:22:12;;;;;;;38.87;9.77;;;7.70;99.90;;;;;;4993175;28;20430;-71
2022/02/02 02:24:39;;;;;;;26.03;7.80;;;7.70;99.90;;;;;;4993081;28;20482;-71
2022/02/02 02:27:06;;;;;;;25.77;7.63;;;7.70;99.90;;;;;;4992701;28;20894;-71
2022/02/02 02:40:03;;;;;;;32.17;9.90;;;7.70;99.90;;;;;;5066225;28;20444;-70
2022/02/02 02:56:18;;;;;;;25.57;6.70;;;7.60;99.90;;;;;;5073969;28;20791;-69
2022/02/02 03:02:06;;;;;;;26.10;6.93;;;7.60;99.90;;;;;;5072605;28;20494;-70
2022/02/02 03:32:05;;;;;;;32.57;8.03;;;7.90;99.90;;;;;;5054574;28;20427;-70
2022/02/02 03:34:49;;;;;;;25.03;6.80;;;7.80;99.90;;;;;;5053585;28;20389;-70
2022/02/02 03:53:54;;;;;;;22.90;7.70;;;7.70;99.90;;;;;;5054655;28;20913;-70
2022/02/02 03:59:04;;;;;;;28.27;6.13;;;7.70;99.90;;;;;;5052951;28;20432;-70
2022/02/02 04:06:25;;;;;;;34.43;7.40;;;7.60;99.90;;;;;;5052740;28;20449;-70
2022/02/02 04:08:51;;;;;;;33.00;8.00;;;7.60;99.90;;;;;;5052904;28;20466;-70
2022/02/02 04:11:29;;;;;;;19.73;6.93;;;7.60;99.90;;;;;;5053047;28;20409;-70
2022/02/02 04:52:14;;;;;;;22.30;7.37;;;7.50;99.90;;;;;;4990773;28;20471;-70
2022/02/02 04:54:58;;;;;;;26.07;7.53;;;7.60;99.90;;;;;;4990649;28;20821;-70
2022/02/02 05:13:59;;;;;;;24.90;7.37;;;7.50;99.90;;;;;;5052200;28;20416;-70
2022/02/02 05:42:41;;;;;;;23.37;7.10;;;7.50;99.90;;;;;;5053729;28;20778;-70
2022/02/02 05:52:50;;;;;;;28.87;6.53;;;7.50;99.90;;;;;;5070036;28;20448;-71
2022/02/02 05:55:17;;;;;;;21.90;7.23;;;7.60;99.90;;;;;;5071832;28;20846;-71
2022/02/02 05:57:45;;;;;;;27.53;6.83;;;7.60;99.90;;;;;;5071789;28;20414;-71
2022/02/02 06:00:12;;;;;;;30.80;8.70;;;7.50;99.90;;;;;;5070476;28;20180;-71
2022/02/02 06:02:38;;;;;;;19.90;5.23;;;7.50;99.90;;;;;;5046519;28;20424;-71
2022/02/02 06:05:07;;;;;;;25.17;7.70;;;7.50;99.90;;;;;;5052685;28;20437;-70
2022/02/02 06:07:35;;;;;;;20.15;7.13;;;7.40;99.90;;;;;;5050752;28;20431;-72
2022/02/02 06:10:07;;;;;;;18.30;6.27;;;7.40;99.90;;;;;;5051259;28;20250;-71
2022/02/02 06:12:33;;;;;;;21.23;6.23;;;7.30;99.90;;;;;;5051458;28;20888;-72
2022/02/02 06:15:08;;;;;;;17.17;5.63;;;7.20;99.90;;;;;;5062160;28;20451;-70
2022/02/02 06:17:39;;;;;;;19.33;7.07;;;7.20;99.90;;;;;;5070781;28;20385;-71
2022/02/02 06:20:05;;;;;;;15.27;4.13;;;7.20;99.90;;;;;;5071355;28;20395;-70
2022/02/02 06:22:35;;;;;;;17.07;3.50;;;7.20;99.90;;;;;;5070941;28;21010;-70
2022/02/02 06:25:22;;;;;;;12.27;3.23;;;7.20;99.90;;;;;;5069420;28;20444;-70
2022/02/02 06:27:56;;;;;;;10.57;3.67;;;7.20;99.90;;;;;;5071087;28;20454;-70
2022/02/02 06:30:25;;;;;;;9.27;3.60;;;7.10;99.90;;;;;;5047115;28;20463;-71
2022/02/02 06:32:54;;;;;;;9.90;2.73;;;7.10;99.90;;;;;;5051082;28;21080;-71
2022/02/02 06:35:21;;;;;;;5.27;2.73;;;7.00;99.90;;;;;;5051979;28;20513;-68
2022/02/02 06:37:48;;;;;;;6.10;2.33;;;7.00;99.90;;;;;;5051052;28;20442;-70
2022/02/02 06:40:15;;;;;;;5.53;2.37;;;7.00;99.90;;;;;;5070420;28;20424;-69
2022/02/02 06:42:41;;;;;;;14.40;2.87;;;7.00;99.90;;;;;;5070963;28;20466;-69
2022/02/02 06:45:09;;;;;;;12.20;4.43;;;7.00;99.90;;;;;;5071343;28;20436;-70
2022/02/02 06:47:36;;;;;;;12.20;2.87;;;7.00;99.90;;;;;;5070743;28;20452;-70
2022/02/02 06:50:09;;;;;;;6.40;2.60;;;6.90;99.90;;;;;;5069911;28;20423;-70
2022/02/02 06:53:10;;;;;;;9.77;3.60;;;7.00;99.90;;;;;;5074894;28;20408;-71
2022/02/02 06:56:02;;;;;;;16.80;3.67;;;7.10;99.90;;;;;;5060275;28;20451;-69
2022/02/02 06:59:00;;;;;;;11.63;3.23;;;7.10;99.90;;;;;;5052488;28;20413;-70
2022/02/02 07:04:33;;;;;;;12.47;3.97;;;7.20;99.90;;;;;;5046527;28;20404;-70
2022/02/02 07:07:07;;;;;;;9.17;3.90;;;7.20;99.90;;;;;;5050701;28;20471;-70
2022/02/02 07:10:17;;;;;;;9.10;4.13;;;7.30;99.90;;;;;;5054436;28;20978;-70
2022/02/02 07:13:07;;;;;;;19.70;5.57;;;7.40;99.90;;;;;;5039439;28;20448;-69
2022/02/02 07:18:20;;;;;;;14.07;5.57;;;7.50;99.90;;;;;;5052062;28;20460;-71
2022/02/02 07:21:01;;;;;;;17.60;4.80;;;7.50;99.90;;;;;;5050306;28;20466;-70
2022/02/02 07:26:19;;;;;;;26.13;6.20;;;7.50;99.90;;;;;;5054453;28;20571;-70
2022/02/02 07:34:11;;;;;;;21.60;7.53;;;7.60;99.90;;;;;;5056033;28;20972;-70
2022/02/02 07:36:42;;;;;;;20.70;7.93;;;7.60;99.90;;;;;;5044477;28;20630;-71
2022/02/02 07:39:12;;;;;;;27.17;7.67;;;7.50;99.90;;;;;;5052103;28;20457;-71
2022/02/02 07:41:47;;;;;;;21.50;8.00;;;7.40;99.90;;;;;;5053863;28;20490;-68
2022/02/02 07:44:18;;;;;;;25.43;8.00;;;7.40;99.90;;;;;;5043378;28;20457;-71
2022/02/02 07:46:50;;;;;;;28.83;7.17;;;7.40;99.90;;;;;;5041861;28;20464;-70
2022/02/02 07:49:17;;;;;;;23.63;8.20;;;7.40;99.90;;;;;;5052573;28;20450;-71
2022/02/02 07:51:47;;;;;;;27.90;8.97;;;7.30;99.90;;;;;;5052648;28;20969;-70
2022/02/02 07:54:23;;;;;;;27.40;7.87;;;7.30;99.90;;;;;;5054451;28;20925;-70
2022/02/02 07:56:51;;;;;;;25.90;7.33;;;7.30;99.90;;;;;;5053585;28;20411;-70
2022/02/02 07:59:46;;;;;;;17.03;6.70;;;7.30;99.90;;;;;;5053882;28;20447;-71
2022/02/02 08:02:13;;;;;;;24.17;7.37;;;7.30;99.90;;;;;;5052103;28;20764;-72
2022/02/02 08:04:39;;;;;;;24.67;8.13;;;7.30;99.90;;;;;;5047382;28;20507;-71
2022/02/02 08:07:07;;;;;;;29.03;7.10;;;7.40;99.90;;;;;;5052583;28;20540;-70
2022/02/02 08:09:38;;;;;;;28.93;6.80;;;7.40;99.90;;;;;;5052822;28;20194;-71
2022/02/02 08:12:14;;;;;;;20.93;7.80;;;7.40;99.90;;;;;;5055015;28;20424;-71
2022/02/02 08:14:41;;;;;;;25.30;6.43;;;7.40;99.90;;;;;;5053554;28;20431;-70
2022/02/02 08:17:07;;;;;;;20.33;6.67;;;7.30;99.90;;;;;;5052609;28;20486;-70
2022/02/02 08:19:33;;;;;;;18.07;6.23;;;7.30;99.90;;;;;;5052858;28;20917;-72
2022/02/02 08:21:59;;;;;;;24.33;7.43;;;7.40;99.90;;;;;;5052888;28;20413;-71
2022/02/02 08:24:27;;;;;;;28.17;9.40;;;7.40;99.90;;;;;;5051573;28;20486;-72
2022/02/02 08:26:52;;;;;;;22.30;7.93;;;7.50;99.90;;;;;;5050864;28;20203;-71
2022/02/02 08:29:18;;;;;;;30.27;6.50;;;7.60;99.90;;;;;;5050711;28;20420;-71
2022/02/02 08:31:44;;;;;;;19.00;5.87;;;7.60;99.90;;;;;;5050628;28;20163;-70
2022/02/02 08:34:11;;;;;;;20.47;6.57;;;7.50;99.90;;;;;;5049681;28;20193;-70
2022/02/02 08:36:39;;;;;;;27.27;8.27;;;7.60;99.90;;;;;;5042357;28;20233;-70
2022/02/02 08:41:48;;;;;;;28.13;8.70;;;7.60;99.90;;;;;;5051686;28;20444;-72
2022/02/02 08:44:23;;;;;;;27.50;8.20;;;7.70;99.90;;;;;;5052153;28;20430;-71
2022/02/02 08:47:03;;;;;;;22.30;6.50;;;7.80;99.90;;;;;;5050057;28;20452;-71
2022/02/02 08:49:32;;;;;;;22.77;6.93;;;7.80;99.90;;;;;;5051406;28;21094;-73
2022/02/02 08:52:00;;;;;;;28.37;7.63;;;7.80;99.90;;;;;;5050001;28;20434;-72
2022/02/02 08:54:33;;;;;;;16.97;5.40;;;7.80;99.90;;;;;;5049514;28;20508;-68
2022/02/02 09:02:02;;;;;;;24.23;6.87;;;7.60;99.90;;;;;;5051313;28;20511;-71
2022/02/02 09:07:11;;;;;;;24.00;6.83;;;7.70;99.90;;;;;;5056393;28;20475;-70
2022/02/02 09:31:53;;;;;;;24.23;6.50;;;7.80;99.90;;;;;;5053209;28;20824;-70
2022/02/02 09:34:07;;;;;;;18.47;6.57;;;7.80;99.90;;;;;;5068160;28;20480;-73
2022/02/02 09:36:35;;;;;;;23.57;7.47;;;7.80;99.90;;;;;;5060499;28;20449;-70
2022/02/02 09:39:17;;;;;;;19.00;7.83;;;7.90;99.90;;;;;;5049789;28;20466;-68
2022/02/02 09:41:46;;;;;;;28.97;8.53;;;7.90;99.90;;;;;;5055240;28;20929;-71
2022/02/02 09:44:16;;;;;;;14.67;5.90;;;7.90;99.90;;;;;;5052795;28;20432;-72
2022/02/02 09:49:26;;;;;;;25.27;7.00;;;8.00;99.90;;;;;;5076993;28;20422;-72
2022/02/02 09:52:06;;;;;;;23.63;6.17;;;7.90;99.90;;;;;;5076871;28;20407;-72
2022/02/02 09:55:21;;;;;;;22.43;6.60;;;7.90;99.90;;;;;;5076458;28;20422;-72
2022/02/02 10:06:52;;;;;;;15.73;5.90;;;8.10;99.90;;;;;;5030443;28;20465;-72
2022/02/02 10:09:55;;;;;;;15.80;5.67;;;8.00;99.90;;;;;;4947752;29;20417;-72
2022/02/02 10:15:13;;;;;;;19.10;5.90;;;8.10;99.90;;;;;;4960089;28;21211;-72
2022/02/02 10:17:38;;;;;;;22.03;7.03;;;8.00;99.90;;;;;;4966882;28;20437;-70
2022/02/02 10:20:20;;;;;;;27.17;6.53;;;8.10;99.90;;;;;;4966702;28;20603;-71
2022/02/02 10:22:48;;;;;;;23.37;6.03;;;8.20;99.90;;;;;;4966579;28;20178;-73
2022/02/02 10:25:31;;;;;;;21.67;6.10;;;8.20;99.90;;;;;;4971088;28;20543;-72
2022/02/02 10:28:17;;;;;;;14.63;5.83;;;8.30;99.90;;;;;;4961895;28;20471;-71
2022/02/02 10:30:46;;;;;;;20.43;6.27;;;8.20;99.90;;;;;;4981122;28;20453;-71
2022/02/02 10:33:18;;;;;;;18.27;6.10;;;8.20;99.90;;;;;;4978474;28;21026;-71
2022/02/02 10:35:46;;;;;;;13.70;5.67;;;8.20;99.90;;;;;;4987274;28;20464;-70
2022/02/02 10:38:20;;;;;;;20.80;6.03;;;8.20;99.90;;;;;;4977567;28;20433;-71
2022/02/02 10:40:54;;;;;;;21.80;7.63;;;8.10;99.90;;;;;;4973412;28;20482;-71
2022/02/02 10:43:31;;;;;;;22.43;7.00;;;8.10;99.90;;;;;;4979638;28;20429;-71
2022/02/02 10:46:11;;;;;;;16.50;6.47;;;8.20;99.90;;;;;;5054492;28;20452;-71
2022/02/02 10:48:46;;;;;;;18.17;7.17;;;8.10;99.90;;;;;;5056190;28;20418;-71
2022/02/02 10:51:20;;;;;;;29.53;8.73;;;8.10;99.90;;;;;;5054693;28;20408;-72
2022/02/02 10:59:20;;;;;;;18.40;7.27;;;8.50;99.90;;;;;;5057340;28;20497;-71
2022/02/02 11:06:56;;;;;;;14.77;6.40;;;8.50;99.90;;;;;;5037627;28;20224;-71
2022/02/02 11:09:22;;;;;;;22.33;7.70;;;8.50;99.90;;;;;;5018895;28;20439;-72
2022/02/02 11:11:52;;;;;;;19.57;7.60;;;8.40;99.90;;;;;;5056378;28;20419;-72
2022/02/02 11:14:39;;;;;;;18.67;7.60;;;8.40;99.90;;;;;;5057551;28;20401;-71
2022/02/02 11:17:41;;;;;;;19.53;7.50;;;8.30;99.90;;;;;;5058532;28;20907;-71
2022/02/02 11:20:08;;;;;;;18.70;8.00;;;8.40;99.90;;;;;;5055427;28;20392;-72
2022/02/02 11:22:37;;;;;;;22.57;8.40;;;8.30;99.90;;;;;;5057581;28;20424;-72
2022/02/02 11:25:22;;;;;;;22.43;7.60;;;8.30;99.90;;;;;;5056946;28;20437;-71
2022/02/02 11:27:56;;;;;;;25.37;8.90;;;8.30;99.90;;;;;;5057312;28;20412;-73
2022/02/02 11:30:25;;;;;;;28.47;7.77;;;8.30;99.90;;;;;;5038271;28;20409;-72
2022/02/02 11:32:57;;;;;;;15.07;6.50;;;8.40;99.90;;;;;;5064504;28;20419;-69
2022/02/02 11:38:18;;;;;;;16.53;6.83;;;8.30;99.90;;;;;;5077214;28;20405;-71
2022/02/02 11:46:47;;;;;;;21.77;8.47;;;8.40;99.90;;;;;;5041522;28;20452;-71
2022/02/02 11:49:22;;;;;;;21.73;6.10;;;8.40;99.90;;;;;;5055535;28;20442;-70
2022/02/02 11:51:58;;;;;;;14.03;5.93;;;8.50;99.90;;;;;;5054676;28;20729;-70
2022/02/02 11:54:32;;;;;;;13.50;5.60;;;8.40;99.90;;;;;;5054809;28;20480;-70
2022/02/02 11:57:23;;;;;;;19.40;7.03;;;8.40;99.90;;;;;;5054062;28;20423;-71
2022/02/02 11:59:55;;;;;;;17.40;5.90;;;8.40;99.90;;;;;;5053057;28;20419;-70
2022/02/02 12:02:43;;;;;;;13.63;6.67;;;8.30;99.90;;;;;;5054493;28;20390;-71
2022/02/02 12:11:17;;;;;;;23.97;7.23;;;8.50;99.90;;;;;;5053581;28;20778;-71
2022/02/02 12:20:25;;;;;;;23.60;6.73;;;8.60;99.90;;;;;;5049093;28;20478;-71
2022/02/02 12:35:57;;;;;;;22.40;6.17;;;8.70;99.90;;;;;;5050584;28;20570;-69
2022/02/02 12:47:17;;;;;;;18.33;5.67;;;9.40;99.90;;;;;;5073728;28;20466;-67
2022/02/02 13:03:04;;;;;;;21.40;6.20;;;9.20;99.90;;;;;;5047770;28;20455;-71
2022/02/02 13:05:30;;;;;;;14.50;5.70;;;9.20;99.90;;;;;;5009490;28;20982;-70
2022/02/02 13:08:00;;;;;;;16.17;6.83;;;9.20;99.90;;;;;;5037362;28;20528;-70
2022/02/02 13:10:31;;;;;;;13.47;4.93;;;9.00;99.90;;;;;;5031372;28;20419;-71
2022/02/02 13:13:24;;;;;;;18.80;5.40;;;8.90;99.90;;;;;;5031864;28;20501;-71
2022/02/02 13:16:00;;;;;;;19.60;5.83;;;8.90;99.90;;;;;;5049562;28;20454;-70
2022/02/02 13:18:44;;;;;;;15.00;4.50;;;8.80;99.90;;;;;;5046485;28;20422;-71
2022/02/02 13:26:40;;;;;;;11.03;5.60;;;8.80;99.90;;;;;;5067435;28;20206;-69
2022/02/02 13:31:56;;;;;;;14.50;5.40;;;8.70;99.90;;;;;;5061437;28;20416;-70
2022/02/02 14:04:27;;;;;;;13.17;5.17;;;8.60;99.90;;;;;;5055041;28;20409;-72
2022/02/02 14:07:48;;;;;;;10.47;4.73;;;8.60;99.90;;;;;;5039422;28;20452;-71
2022/02/02 14:31:10;;;;;;;13.90;6.93;;;9.30;99.90;;;;;;5056301;28;20450;-71
2022/02/02 14:33:37;;;;;;;14.63;6.53;;;9.30;99.90;;;;;;5054998;28;21072;-72
2022/02/02 14:36:05;;;;;;;18.47;5.60;;;9.40;99.90;;;;;;5057782;28;20455;-70
2022/02/02 14:38:44;;;;;;;16.33;5.93;;;9.50;99.90;;;;;;5069272;28;20432;-72
2022/02/02 14:42:06;;;;;;;14.13;6.37;;;9.50;99.90;;;;;;5073199;28;20448;-69
2022/02/02 14:44:19;;;;;;;11.13;4.67;;;9.50;99.90;;;;;;5053256;28;20466;-70
2022/02/02 14:49:29;;;;;;;17.50;6.70;;;9.70;99.90;;;;;;5054218;28;21098;-73
2022/02/02 15:05:22;;;;;;;18.83;7.93;;;9.80;99.90;;;;;;5060747;28;21010;-72
2022/02/02 15:24:16;;;;;;;14.63;4.70;;;9.80;99.90;;;;;;5033862;28;20409;-71
2022/02/02 15:29:17;;;;;;;20.00;7.17;;;9.90;99.90;;;;;;5051911;28;20457;-71
2022/02/02 15:31:43;;;;;;;22.83;7.87;;;9.90;99.90;;;;;;5045497;28;20455;-71
2022/02/02 15:34:14;;;;;;;21.33;7.70;;;9.90;99.90;;;;;;5073773;28;20410;-71
2022/02/02 15:39:23;;;;;;;26.13;7.63;;;10.00;99.90;;;;;;5053782;28;20436;-72
2022/02/02 15:58:30;;;;;;;16.47;6.93;;;9.60;99.90;;;;;;4978544;28;20425;-72
2022/02/02 16:01:51;;;;;;;16.50;7.03;;;9.60;99.90;;;;;;4973087;28;20498;-70
2022/02/02 16:03:52;;;;;;;15.70;5.13;;;9.60;99.90;;;;;;4971898;28;20479;-69
2022/02/02 16:06:21;;;;;;;17.50;6.20;;;9.50;99.90;;;;;;4978828;28;20466;-72
2022/02/02 16:08:50;;;;;;;15.50;6.43;;;9.50;99.90;;;;;;4991012;28;20478;-72
2022/02/02 16:11:25;;;;;;;17.63;6.03;;;9.50;99.90;;;;;;4983418;28;20412;-72
2022/02/02 16:13:52;;;;;;;23.53;5.93;;;9.40;99.90;;;;;;4972035;28;20419;-70
2022/02/02 16:37:30;;;;;;;15.53;8.63;;;9.00;99.90;;;;;;5050395;28;20526;-71
2022/02/02 16:39:59;;;;;;;13.23;7.00;;;9.00;99.90;;;;;;5052509;28;20404;-71
2022/02/02 16:45:12;;;;;;;14.00;6.77;;;9.00;99.90;;;;;;5051151;28;21269;-71
2022/02/02 16:47:37;;;;;;;22.63;6.67;;;9.00;99.90;;;;;;5051603;28;20463;-71
2022/02/02 16:50:03;;;;;;;16.10;6.63;;;9.00;99.90;;;;;;5051786;28;20416;-71
2022/02/02 16:52:32;;;;;;;14.50;5.90;;;8.90;99.90;;;;;;5051664;28;20656;-71
2022/02/02 16:55:03;;;;;;;14.57;6.07;;;8.90;99.90;;;;;;5051727;28;20431;-70
2022/02/02 16:57:49;;;;;;;19.73;6.03;;;8.80;99.90;;;;;;5050788;28;20413;-70
2022/02/02 17:30:24;;;;;;;12.30;6.70;;;8.30;99.90;;;;;;5048791;28;20445;-70
2022/02/02 17:32:56;;;;;;;25.00;7.40;;;8.30;99.90;;;;;;5033225;28;20410;-72
2022/02/02 17:38:14;;;;;;;15.25;7.85;;;8.30;99.90;;;;;;5047666;28;20473;-72
2022/02/02 17:41:08;;;;;;;14.90;6.63;;;8.30;99.90;;;;;;5047993;28;20534;-70
2022/02/02 17:56:13;;;;;;;17.47;7.10;;;8.30;99.90;;;;;;5050168;28;20999;-72
2022/02/02 18:19:27;;;;;;;21.10;7.57;;;8.20;99.90;;;;;;4966133;28;20435;-71
2022/02/02 18:21:53;;;;;;;18.93;8.70;;;8.10;99.90;;;;;;4949621;28;20970;-71
2022/02/02 18:24:31;;;;;;;23.47;8.47;;;8.10;99.90;;;;;;4966110;28;20672;-72
2022/02/02 18:27:11;;;;;;;15.10;7.83;;;8.00;99.90;;;;;;4965981;28;20494;-71
2022/02/02 18:29:56;;;;;;;13.30;7.60;;;8.10;99.90;;;;;;4965568;28;21270;-72
2022/02/02 18:32:39;;;;;;;14.80;7.03;;;8.10;99.90;;;;;;4965944;28;20969;-71
2022/02/02 18:35:06;;;;;;;18.40;7.63;;;8.20;99.90;;;;;;4965950;28;20441;-68
2022/02/02 18:45:39;;;;;;;17.60;7.13;;;8.20;99.90;;;;;;5004006;28;20444;-71
2022/02/02 18:48:22;;;;;;;12.53;6.37;;;8.20;99.90;;;;;;5039919;28;20430;-71
2022/02/02 18:51:28;;;;;;;15.13;7.10;;;8.20;99.90;;;;;;5050951;28;20412;-71
2022/02/02 18:56:49;;;;;;;23.87;7.20;;;8.00;99.90;;;;;;5050581;28;20531;-71
2022/02/02 18:59:13;;;;;;;17.33;7.17;;;7.90;99.90;;;;;;5047745;28;20197;-71
2022/02/02 19:02:00;;;;;;;18.80;8.03;;;7.80;99.90;;;;;;5050745;28;20424;-70
2022/02/02 19:04:50;;;;;;;15.70;7.20;;;7.80;99.90;;;;;;5068990;28;20511;-71
2022/02/02 19:07:50;;;;;;;19.87;8.40;;;7.80;99.90;;;;;;5070929;28;20533;-70
2022/02/02 19:37:19;;;;;;;16.33;7.03;;;8.30;99.90;;;;;;5050206;28;20403;-71
2022/02/02 19:40:21;;;;;;;28.70;12.67;;;8.40;99.90;;;;;;5050488;28;20503;-71
2022/02/02 20:02:16;;;;;;;19.73;9.07;;;8.40;99.90;;;;;;5046994;28;20921;-71
2022/02/02 20:08:01;;;;;;;21.33;9.67;;;8.60;99.90;;;;;;5076142;28;20452;-70
2022/02/02 20:10:45;;;;;;;14.37;9.93;;;8.60;99.90;;;;;;5069323;28;20193;-69
2022/02/02 20:12:42;;;;;;;17.13;9.47;;;8.60;99.90;;;;;;5063744;28;20455;-68
2022/02/02 20:15:10;;;;;;;21.83;10.77;;;8.70;99.90;;;;;;5074088;28;20404;-70
2022/02/02 20:17:37;;;;;;;23.30;10.67;;;8.70;99.90;;;;;;5050194;28;20253;-69
2022/02/02 20:20:13;;;;;;;17.37;10.27;;;8.70;99.90;;;;;;5050252;28;20415;-71
2022/02/02 20:22:39;;;;;;;21.67;11.03;;;8.80;99.90;;;;;;5030193;28;20401;-71
2022/02/02 20:25:05;;;;;;;19.47;11.10;;;8.70;99.90;;;;;;5040216;28;20463;-70
2022/02/02 20:27:34;;;;;;;17.00;11.37;;;8.70;99.90;;;;;;5049104;28;20195;-71
2022/02/02 20:30:00;;;;;;;25.50;12.57;;;8.70;99.90;;;;;;5049709;28;20816;-70
2022/02/02 20:32:26;;;;;;;22.27;12.03;;;8.70;99.90;;;;;;5031119;28;20771;-72
2022/02/02 20:34:52;;;;;;;20.33;11.80;;;8.70;99.90;;;;;;5049212;28;20496;-71
2022/02/02 20:37:19;;;;;;;22.77;13.20;;;8.70;99.90;;;;;;5048621;28;20235;-71
2022/02/02 20:39:57;;;;;;;22.43;14.20;;;8.80;99.90;;;;;;5049787;28;20200;-70
2022/02/02 20:43:09;;;;;;;18.60;12.80;;;8.80;99.90;;;;;;5049490;28;20413;-71
2022/02/02 21:07:01;;;;;;;22.00;13.87;;;8.90;99.90;;;;;;5070068;28;20211;-70
2022/02/02 21:09:52;;;;;;;28.03;16.23;;;8.90;99.90;;;;;;5089069;28;20416;-69
2022/02/02 21:15:11;;;;;;;22.00;14.63;;;8.90;99.90;;;;;;5095047;28;20457;-68
2022/02/02 21:17:38;;;;;;;20.83;15.17;;;8.90;99.90;;;;;;5096321;28;20408;-66
2022/02/02 21:20:14;;;;;;;23.30;17.20;;;9.00;99.90;;;;;;5074431;28;21203;-70
2022/02/02 21:22:57;;;;;;;24.33;15.30;;;8.90;99.90;;;;;;5051074;28;20392;-71
2022/02/02 21:25:40;;;;;;;23.30;14.50;;;8.90;99.90;;;;;;5050108;28;20519;-72
2022/02/02 21:28:07;;;;;;;24.50;15.37;;;8.90;99.90;;;;;;5049748;28;20472;-73
2022/02/02 21:30:36;;;;;;;24.93;15.67;;;8.90;99.90;;;;;;5068867;28;20434;-71
2022/02/02 21:33:02;;;;;;;23.80;15.17;;;9.00;99.90;;;;;;5069647;28;21100;-72
2022/02/02 21:35:28;;;;;;;22.27;14.70;;;9.00;99.90;;;;;;5069489;28;20440;-70
2022/02/02 21:38:01;;;;;;;24.07;14.70;;;8.90;99.90;;;;;;5051803;28;20517;-72
2022/02/02 21:40:28;;;;;;;23.53;15.10;;;8.80;99.90;;;;;;5068941;28;20579;-71
2022/02/02 21:42:56;;;;;;;23.90;15.33;;;8.80;99.90;;;;;;5069328;28;20506;-72
2022/02/02 21:45:24;;;;;;;20.77;14.40;;;8.90;99.90;;;;;;5068025;28;20442;-70
2022/02/02 21:47:51;;;;;;;18.80;13.40;;;8.90;99.90;;;;;;5068025;28;20462;-70
2022/02/02 21:50:18;;;;;;;19.83;13.20;;;8.90;99.90;;;;;;5068038;28;20407;-72
2022/02/02 21:52:46;;;;;;;19.50;13.87;;;8.90;99.90;;;;;;5069740;28;20464;-72
2022/02/02 21:55:12;;;;;;;27.90;15.23;;;9.00;99.90;;;;;;5069653;28;20522;-72
2022/02/02 21:57:38;;;;;;;18.50;14.07;;;9.00;99.90;;;;;;5069192;28;20478;-71
2022/02/02 22:00:06;;;;;;;20.27;13.63;;;9.00;99.90;;;;;;5069626;28;20427;-72
2022/02/02 22:02:34;;;;;;;20.47;12.83;;;9.00;99.90;;;;;;5066686;28;20267;-71
2022/02/02 22:05:00;;;;;;;17.73;13.43;;;9.00;99.90;;;;;;5050869;28;20530;-72
2022/02/02 22:07:27;;;;;;;15.87;12.43;;;9.00;99.90;;;;;;5049104;28;20990;-72
2022/02/02 22:09:56;;;;;;;16.70;10.97;;;8.90;99.90;;;;;;5049363;28;20465;-72
2022/02/02 22:12:22;;;;;;;15.70;11.07;;;8.90;99.90;;;;;;5049073;28;20444;-72
2022/02/02 22:14:51;;;;;;;16.13;10.43;;;8.90;99.90;;;;;;5049256;28;20416;-72
2022/02/02 22:17:17;;;;;;;20.00;11.63;;;8.90;99.90;;;;;;5048284;28;20912;-72
2022/02/02 22:19:43;;;;;;;20.60;12.80;;;8.80;99.90;;;;;;5049182;28;20446;-73
2022/02/02 22:22:08;;;;;;;19.63;12.53;;;8.90;99.90;;;;;;5065904;28;20470;-72
2022/02/02 22:24:37;;;;;;;20.20;13.30;;;8.90;99.90;;;;;;5073035;28;20192;-71
2022/02/02 22:27:03;;;;;;;22.08;15.52;;;8.90;99.90;;;;;;5073169;28;20790;-72
2022/02/02 22:29:30;;;;;;;22.20;15.30;;;8.80;99.90;;;;;;5081759;28;20168;-72
2022/02/02 22:31:56;;;;;;;24.20;14.33;;;8.90;99.90;;;;;;5065857;28;20417;-70
2022/02/02 22:34:22;;;;;;;23.53;14.07;;;8.80;99.90;;;;;;5050182;28;20430;-72
2022/02/02 22:36:47;;;;;;;23.70;15.60;;;8.80;99.90;;;;;;5069122;28;20209;-71
2022/02/02 22:39:13;;;;;;;21.60;14.00;;;8.80;99.90;;;;;;5079411;28;20222;-71
2022/02/02 22:41:39;;;;;;;18.80;12.73;;;8.80;99.90;;;;;;5088303;28;20188;-71
2022/02/02 22:44:11;;;;;;;17.83;12.20;;;8.80;99.90;;;;;;5067947;28;20194;-69
2022/02/02 22:46:37;;;;;;;18.33;13.03;;;8.90;99.90;;;;;;5054240;28;20224;-72
2022/02/02 22:49:03;;;;;;;16.07;10.93;;;8.90;99.90;;;;;;5068890;28;20500;-72
2022/02/02 22:51:31;;;;;;;16.50;11.63;;;8.80;99.90;;;;;;5069897;28;20421;-72
2022/02/02 22:53:57;;;;;;;15.20;10.50;;;8.90;99.90;;;;;;5067319;28;20420;-72
2022/02/02 22:56:22;;;;;;;13.17;10.57;;;8.90;99.90;;;;;;5054325;28;20502;-71
2022/02/02 22:58:49;;;;;;;14.43;10.53;;;8.90;99.90;;;;;;5087333;28;20509;-72
2022/02/02 23:01:17;;;;;;;17.00;10.90;;;8.90;99.90;;;;;;5104367;22;20169;-69
2022/02/02 23:03:43;;;;;;;16.17;10.20;;;9.00;99.90;;;;;;5028594;28;20428;-70
2022/02/02 23:06:08;;;;;;;12.80;9.37;;;9.00;99.90;;;;;;5050766;28;20451;-70
2022/02/02 23:08:34;;;;;;;10.60;8.70;;;9.00;99.90;;;;;;5051578;28;20178;-69
2022/02/02 23:11:00;;;;;;;11.13;7.50;;;8.90;99.90;;;;;;5054208;28;20184;-69
2022/02/02 23:13:27;;;;;;;10.60;7.90;;;9.00;99.90;;;;;;5071032;28;20223;-69
2022/02/02 23:15:56;;;;;;;10.70;7.50;;;9.00;99.90;;;;;;5070731;28;20514;-70
2022/02/02 23:18:25;;;;;;;9.83;7.37;;;9.00;99.90;;;;;;5072017;28;20452;-70
2022/02/02 23:20:56;;;;;;;9.17;7.20;;;9.00;99.90;;;;;;5069656;28;21124;-69
2022/02/02 23:23:25;;;;;;;8.87;6.20;;;9.00;99.90;;;;;;5051624;28;20923;-71
2022/02/02 23:25:53;;;;;;;8.33;6.33;;;9.00;99.90;;;;;;5050775;28;20455;-70
2022/02/02 23:28:24;;;;;;;9.30;6.60;;;9.00;99.90;;;;;;5051566;28;20435;-71
2022/02/02 23:30:50;;;;;;;7.63;6.10;;;9.00;99.90;;;;;;5051582;28;20407;-70